createdAt,value
2022-10-31T00:00:36.715Z,47.90
2022-10-31T00:01:36.664Z,55.10
2022-10-31T00:02:36.750Z,54.40
2022-10-31T00:03:36.632Z,56.70
2022-10-31T00:04:36.623Z,55.00
2022-10-31T00:05:36.617Z,54.10
2022-10-31T00:06:36.611Z,54.00
2022-10-31T00:07:36.604Z,47.50
2022-10-31T00:08:36.595Z,49.60
2022-10-31T00:09:36.591Z,49.20
2022-10-31T00:10:36.612Z,50.10
2022-10-31T00:11:36.580Z,127.80
2022-10-31T00:12:36.569Z,94.60
2022-10-31T00:13:36.565Z,164.50
2022-10-31T00:14:36.552Z,171.30
2022-10-31T00:15:36.555Z,153.50
2022-10-31T00:16:36.563Z,159.70
2022-10-31T00:17:36.546Z,146.10
2022-10-31T00:18:36.525Z,144.50
2022-10-31T00:19:36.517Z,132.20
2022-10-31T00:20:36.512Z,116.60
2022-10-31T00:21:36.532Z,93.00
2022-10-31T00:22:36.494Z,89.00
2022-10-31T00:23:36.488Z,90.70
2022-10-31T00:24:36.480Z,81.20
2022-10-31T00:25:36.473Z,73.80
2022-10-31T00:26:36.471Z,74.50
2022-10-31T00:27:36.461Z,68.60
2022-10-31T00:28:36.451Z,57.60
2022-10-31T00:29:36.445Z,60.00
2022-10-31T00:30:36.439Z,62.20
2022-10-31T00:31:36.432Z,64.20
2022-10-31T00:32:36.420Z,57.30
2022-10-31T00:33:36.416Z,61.20
2022-10-31T00:34:36.410Z,61.30
2022-10-31T00:35:36.401Z,59.20
2022-10-31T00:36:36.396Z,52.20
2022-10-31T00:37:36.387Z,60.70
2022-10-31T00:38:36.380Z,59.30
2022-10-31T00:39:36.377Z,59.70
2022-10-31T00:40:36.369Z,54.60
2022-10-31T00:41:36.360Z,55.30
2022-10-31T00:42:36.354Z,56.80
2022-10-31T00:43:36.353Z,53.80
2022-10-31T00:44:36.348Z,53.10
2022-10-31T00:45:36.333Z,52.20
2022-10-31T00:46:36.358Z,52.30
2022-10-31T00:47:36.316Z,54.60
2022-10-31T00:48:36.329Z,55.00
2022-10-31T00:49:36.307Z,54.20
2022-10-31T00:50:36.299Z,54.90
2022-10-31T00:51:36.314Z,54.30
2022-10-31T00:52:36.282Z,50.70
2022-10-31T00:53:36.273Z,49.00
2022-10-31T00:54:36.264Z,51.00
2022-10-31T00:55:36.259Z,52.20
2022-10-31T00:56:36.249Z,50.90
2022-10-31T00:57:36.242Z,52.00
2022-10-31T00:58:36.236Z,49.00
2022-10-31T00:59:43.401Z,52.30
2022-10-31T01:01:40.351Z,51.30
2022-10-31T01:02:40.328Z,44.90
2022-10-31T01:04:44.178Z,46.70
2022-10-31T01:05:44.157Z,47.90
2022-10-31T01:07:37.078Z,48.20
2022-10-31T01:08:37.043Z,48.30
2022-10-31T01:10:41.049Z,49.20
2022-10-31T01:11:41.036Z,48.90
2022-10-31T01:13:45.023Z,52.30
2022-10-31T01:14:44.999Z,54.90
2022-10-31T01:16:37.915Z,56.10
2022-10-31T01:17:37.905Z,57.80
2022-10-31T01:19:30.822Z,57.00
2022-10-31T01:20:30.795Z,51.90
2022-10-31T01:22:34.785Z,56.40
2022-10-31T01:23:34.773Z,57.20
2022-10-31T01:24:34.764Z,58.50
2022-10-31T01:25:34.754Z,56.70
2022-10-31T01:26:34.752Z,58.90
2022-10-31T01:27:34.743Z,56.50
2022-10-31T01:28:34.736Z,58.30
2022-10-31T01:29:34.725Z,66.10
2022-10-31T01:30:34.723Z,67.50
2022-10-31T01:31:34.709Z,67.60
2022-10-31T01:32:34.715Z,64.30
2022-10-31T01:33:34.698Z,63.10
2022-10-31T01:34:34.687Z,64.90
2022-10-31T01:35:34.688Z,64.40
2022-10-31T01:36:34.672Z,64.70
2022-10-31T01:37:34.672Z,61.80
2022-10-31T01:38:34.668Z,62.10
2022-10-31T01:39:34.649Z,56.30
2022-10-31T01:40:34.653Z,56.70
2022-10-31T01:41:34.635Z,56.10
2022-10-31T01:42:34.639Z,57.10
2022-10-31T01:43:34.627Z,56.80
2022-10-31T01:44:34.619Z,60.00
2022-10-31T01:45:34.608Z,57.20
2022-10-31T01:46:34.626Z,58.30
2022-10-31T01:47:34.596Z,59.50
2022-10-31T01:48:34.581Z,55.20
2022-10-31T01:49:34.582Z,59.10
2022-10-31T01:50:34.569Z,55.20
2022-10-31T01:51:34.562Z,57.00
2022-10-31T01:52:34.553Z,53.40
2022-10-31T01:53:34.547Z,56.40
2022-10-31T01:54:34.549Z,50.70
2022-10-31T01:55:34.530Z,54.40
2022-10-31T01:56:34.525Z,58.10
2022-10-31T01:57:34.518Z,62.40
2022-10-31T01:58:34.514Z,57.10
2022-10-31T01:59:34.504Z,58.90
2022-10-31T02:00:34.501Z,55.00
2022-10-31T02:01:34.568Z,58.60
2022-10-31T02:02:34.648Z,57.70
2022-10-31T02:03:34.472Z,56.60
2022-10-31T02:04:34.465Z,57.80
2022-10-31T02:05:34.461Z,54.60
2022-10-31T02:06:34.459Z,51.60
2022-10-31T02:07:34.441Z,56.80
2022-10-31T02:08:34.434Z,54.50
2022-10-31T02:09:34.427Z,52.40
2022-10-31T02:10:34.421Z,52.20
2022-10-31T02:11:34.410Z,52.90
2022-10-31T02:12:34.406Z,55.20
2022-10-31T02:13:34.396Z,55.90
2022-10-31T02:14:34.389Z,55.10
2022-10-31T02:15:34.380Z,52.10
2022-10-31T02:16:34.376Z,50.60
2022-10-31T02:17:34.368Z,50.00
2022-10-31T02:18:34.358Z,52.50
2022-10-31T02:19:34.356Z,53.00
2022-10-31T02:20:34.344Z,54.90
2022-10-31T02:21:34.337Z,54.30
2022-10-31T02:22:34.329Z,58.20
2022-10-31T02:23:34.320Z,55.10
2022-10-31T02:24:34.312Z,55.40
2022-10-31T02:25:34.305Z,58.40
2022-10-31T02:26:34.311Z,59.30
2022-10-31T02:27:34.286Z,56.60
2022-10-31T02:28:34.284Z,49.10
2022-10-31T02:29:34.279Z,53.50
2022-10-31T02:30:34.265Z,54.70
2022-10-31T02:31:34.261Z,53.60
2022-10-31T02:32:34.250Z,50.80
2022-10-31T02:33:34.255Z,85.60
2022-10-31T02:34:34.240Z,126.70
2022-10-31T02:35:34.228Z,116.60
2022-10-31T02:36:34.224Z,138.70
2022-10-31T02:37:34.212Z,123.90
2022-10-31T02:38:34.209Z,115.60
2022-10-31T02:39:34.199Z,105.40
2022-10-31T02:40:34.209Z,87.90
2022-10-31T02:41:34.181Z,81.30
2022-10-31T02:42:34.179Z,123.40
2022-10-31T02:43:34.170Z,398.90
2022-10-31T02:44:34.161Z,135.90
2022-10-31T02:45:34.155Z,103.10
2022-10-31T02:46:34.150Z,119.60
2022-10-31T02:47:34.149Z,179.30
2022-10-31T02:48:34.133Z,144.60
2022-10-31T02:49:34.125Z,207.10
2022-10-31T02:50:34.124Z,277.40
2022-10-31T02:51:34.101Z,212.80
2022-10-31T02:52:34.101Z,142.40
2022-10-31T02:53:34.093Z,124.60
2022-10-31T02:54:34.098Z,110.40
2022-10-31T02:55:34.073Z,96.60
2022-10-31T02:56:34.067Z,93.10
2022-10-31T02:57:34.063Z,89.20
2022-10-31T02:58:34.053Z,94.40
2022-10-31T02:59:34.047Z,92.50
2022-10-31T03:00:34.037Z,90.70
2022-10-31T03:01:34.178Z,84.30
2022-10-31T03:02:34.132Z,73.70
2022-10-31T03:03:34.014Z,78.70
2022-10-31T03:04:34.007Z,79.60
2022-10-31T03:05:33.996Z,72.40
2022-10-31T03:06:33.997Z,65.60
2022-10-31T03:07:33.992Z,71.40
2022-10-31T03:08:33.988Z,70.50
2022-10-31T03:09:33.966Z,71.60
2022-10-31T03:10:33.961Z,70.40
2022-10-31T03:11:33.955Z,66.60
2022-10-31T03:12:33.945Z,65.40
2022-10-31T03:13:33.942Z,61.40
2022-10-31T03:14:33.930Z,67.60
2022-10-31T03:15:33.935Z,64.50
2022-10-31T03:16:33.914Z,68.60
2022-10-31T03:17:33.909Z,63.30
2022-10-31T03:18:33.901Z,61.00
2022-10-31T03:19:33.891Z,58.70
2022-10-31T03:20:33.892Z,56.70
2022-10-31T03:21:33.874Z,65.90
2022-10-31T03:22:33.881Z,67.30
2022-10-31T03:23:33.860Z,70.20
2022-10-31T03:24:33.854Z,63.40
2022-10-31T03:25:33.848Z,69.00
2022-10-31T03:26:33.839Z,73.40
2022-10-31T03:27:33.834Z,73.10
2022-10-31T03:28:33.824Z,64.60
2022-10-31T03:29:33.831Z,70.10
2022-10-31T03:30:33.808Z,76.50
2022-10-31T03:31:33.799Z,73.70
2022-10-31T03:32:33.806Z,78.90
2022-10-31T03:33:33.783Z,74.60
2022-10-31T03:34:33.779Z,78.50
2022-10-31T03:35:33.769Z,70.70
2022-10-31T03:36:33.777Z,70.50
2022-10-31T03:37:33.755Z,66.00
2022-10-31T03:38:33.753Z,70.40
2022-10-31T03:39:33.742Z,63.70
2022-10-31T03:40:33.732Z,68.10
2022-10-31T03:41:33.727Z,65.00
2022-10-31T03:42:33.721Z,58.00
2022-10-31T03:43:33.724Z,65.90
2022-10-31T03:44:33.703Z,66.30
2022-10-31T03:45:33.690Z,62.40
2022-10-31T03:46:33.692Z,70.20
2022-10-31T03:47:33.695Z,65.80
2022-10-31T03:48:33.674Z,66.50
2022-10-31T03:49:33.666Z,57.50
2022-10-31T03:50:33.666Z,71.10
2022-10-31T03:51:33.645Z,61.40
2022-10-31T03:52:33.641Z,59.60
2022-10-31T03:53:33.635Z,72.00
2022-10-31T03:54:33.623Z,61.50
2022-10-31T03:55:33.624Z,74.10
2022-10-31T03:56:33.611Z,72.40
2022-10-31T03:57:33.621Z,64.40
2022-10-31T03:58:33.621Z,75.20
2022-10-31T03:59:33.585Z,75.80
2022-10-31T04:00:33.582Z,76.30
2022-10-31T04:01:33.729Z,74.10
2022-10-31T04:02:36.345Z,80.60
2022-10-31T04:03:33.556Z,75.70
2022-10-31T04:04:33.609Z,75.50
2022-10-31T04:05:33.539Z,70.20
2022-10-31T04:06:33.534Z,74.70
2022-10-31T04:07:33.527Z,63.00
2022-10-31T04:08:33.518Z,81.90
2022-10-31T04:09:33.517Z,63.00
2022-10-31T04:10:33.568Z,61.30
2022-10-31T04:11:33.501Z,70.00
2022-10-31T04:12:33.486Z,58.10
2022-10-31T04:13:33.480Z,56.30
2022-10-31T04:14:33.473Z,55.40
2022-10-31T04:15:33.485Z,58.50
2022-10-31T04:16:33.463Z,50.10
2022-10-31T04:17:33.449Z,49.30
2022-10-31T04:18:33.453Z,49.40
2022-10-31T04:19:33.433Z,48.70
2022-10-31T04:20:33.427Z,46.10
2022-10-31T04:21:33.423Z,51.60
2022-10-31T04:22:33.409Z,49.00
2022-10-31T04:23:33.420Z,43.80
2022-10-31T04:24:33.397Z,44.70
2022-10-31T04:25:33.397Z,47.80
2022-10-31T04:26:33.379Z,48.30
2022-10-31T04:27:33.376Z,47.00
2022-10-31T04:28:33.368Z,49.00
2022-10-31T04:29:33.358Z,55.90
2022-10-31T04:30:33.359Z,51.30
2022-10-31T04:31:33.356Z,53.90
2022-10-31T04:32:33.343Z,48.30
2022-10-31T04:33:33.327Z,46.70
2022-10-31T04:34:33.323Z,51.70
2022-10-31T04:35:33.317Z,43.30
2022-10-31T04:36:33.303Z,48.30
2022-10-31T04:37:33.302Z,42.40
2022-10-31T04:38:33.286Z,43.50
2022-10-31T04:39:33.291Z,48.70
2022-10-31T04:40:33.272Z,46.70
2022-10-31T04:41:33.269Z,43.40
2022-10-31T04:42:33.263Z,41.80
2022-10-31T04:43:33.249Z,46.30
2022-10-31T04:44:33.248Z,47.80
2022-10-31T04:45:33.236Z,44.30
2022-10-31T04:46:33.238Z,53.90
2022-10-31T04:47:33.226Z,50.90
2022-10-31T04:48:33.212Z,52.20
2022-10-31T04:49:33.207Z,64.40
2022-10-31T04:50:33.203Z,95.90
2022-10-31T04:51:33.195Z,96.80
2022-10-31T04:52:33.181Z,73.80
2022-10-31T04:53:33.184Z,92.10
2022-10-31T04:54:33.166Z,250.10
2022-10-31T04:55:33.159Z,124.10
2022-10-31T04:56:33.158Z,129.60
2022-10-31T04:57:33.143Z,135.90
2022-10-31T04:58:33.142Z,178.50
2022-10-31T04:59:33.124Z,164.60
2022-10-31T05:00:33.128Z,121.40
2022-10-31T05:01:33.200Z,143.70
2022-10-31T05:02:33.102Z,120.50
2022-10-31T05:03:33.100Z,134.00
2022-10-31T05:04:33.088Z,181.50
2022-10-31T05:05:33.085Z,171.80
2022-10-31T05:06:33.068Z,111.90
2022-10-31T05:07:33.067Z,148.70
2022-10-31T05:08:33.058Z,145.30
2022-10-31T05:09:33.053Z,136.60
2022-10-31T05:10:33.046Z,153.80
2022-10-31T05:11:33.030Z,153.00
2022-10-31T05:12:33.029Z,141.90
2022-10-31T05:13:33.021Z,149.50
2022-10-31T05:14:33.012Z,150.50
2022-10-31T05:15:33.006Z,134.30
2022-10-31T05:16:32.992Z,142.10
2022-10-31T05:17:32.992Z,126.70
2022-10-31T05:18:32.977Z,130.10
2022-10-31T05:19:32.973Z,113.60
2022-10-31T05:20:32.964Z,116.90
2022-10-31T05:21:32.953Z,108.10
2022-10-31T05:22:32.948Z,88.10
2022-10-31T05:23:32.940Z,67.90
2022-10-31T05:24:32.942Z,79.20
2022-10-31T05:25:32.926Z,92.70
2022-10-31T05:26:32.917Z,81.50
2022-10-31T05:27:32.909Z,63.00
2022-10-31T05:28:32.900Z,82.10
2022-10-31T05:29:32.903Z,70.80
2022-10-31T05:30:32.884Z,68.10
2022-10-31T05:31:32.887Z,57.00
2022-10-31T05:32:32.868Z,58.00
2022-10-31T05:33:32.857Z,58.70
2022-10-31T05:34:32.857Z,57.50
2022-10-31T05:35:32.849Z,58.70
2022-10-31T05:36:32.839Z,57.90
2022-10-31T05:37:32.834Z,56.80
2022-10-31T05:38:32.832Z,55.70
2022-10-31T05:39:32.818Z,55.10
2022-10-31T05:40:32.812Z,55.30
2022-10-31T05:41:32.800Z,57.90
2022-10-31T05:42:32.788Z,54.20
2022-10-31T05:43:32.784Z,56.80
2022-10-31T05:44:32.778Z,59.70
2022-10-31T05:45:32.766Z,57.70
2022-10-31T05:47:32.749Z,51.80
2022-10-31T05:48:32.749Z,55.60
2022-10-31T05:49:32.732Z,54.60
2022-10-31T05:50:32.731Z,50.30
2022-10-31T05:51:32.729Z,54.30
2022-10-31T05:52:32.715Z,54.20
2022-10-31T05:53:32.711Z,53.00
2022-10-31T05:54:32.697Z,52.90
2022-10-31T05:55:32.693Z,51.00
2022-10-31T05:56:32.682Z,46.60
2022-10-31T05:57:32.674Z,47.50
2022-10-31T05:58:32.668Z,47.00
2022-10-31T05:59:32.654Z,47.90
2022-10-31T06:00:32.656Z,43.70
2022-10-31T06:01:32.725Z,43.60
2022-10-31T06:02:32.639Z,44.80
2022-10-31T06:03:32.625Z,42.70
2022-10-31T06:04:32.666Z,44.20
2022-10-31T06:05:32.615Z,44.40
2022-10-31T06:06:32.603Z,44.60
2022-10-31T06:07:32.601Z,50.90
2022-10-31T06:08:32.588Z,42.40
2022-10-31T06:09:32.584Z,49.90
2022-10-31T06:10:32.571Z,51.60
2022-10-31T06:11:32.559Z,58.20
2022-10-31T06:12:32.562Z,52.00
2022-10-31T06:13:32.545Z,43.40
2022-10-31T06:14:32.539Z,45.80
2022-10-31T06:15:32.530Z,42.30
2022-10-31T06:16:32.520Z,40.70
2022-10-31T06:17:32.517Z,54.30
2022-10-31T06:18:32.506Z,43.20
2022-10-31T06:19:32.520Z,44.40
2022-10-31T06:20:32.487Z,44.30
2022-10-31T06:21:32.485Z,42.80
2022-10-31T06:22:32.477Z,37.10
2022-10-31T06:23:32.464Z,33.70
2022-10-31T06:24:32.468Z,33.90
2022-10-31T06:25:32.458Z,35.20
2022-10-31T06:26:32.454Z,35.10
2022-10-31T06:27:32.435Z,42.20
2022-10-31T06:28:32.425Z,55.50
2022-10-31T06:29:32.421Z,36.20
2022-10-31T06:30:32.409Z,33.60
2022-10-31T06:31:32.410Z,31.50
2022-10-31T06:32:32.394Z,36.70
2022-10-31T06:33:32.401Z,44.40
2022-10-31T06:34:32.380Z,41.20
2022-10-31T06:35:32.377Z,36.90
2022-10-31T06:36:32.372Z,39.60
2022-10-31T06:37:32.360Z,37.00
2022-10-31T06:38:32.354Z,41.40
2022-10-31T06:39:32.344Z,51.10
2022-10-31T06:40:32.332Z,37.30
2022-10-31T06:41:32.328Z,33.00
2022-10-31T06:42:32.318Z,32.20
2022-10-31T06:43:32.316Z,36.00
2022-10-31T06:44:32.302Z,42.20
2022-10-31T06:45:32.301Z,38.90
2022-10-31T06:46:32.291Z,42.50
2022-10-31T06:47:32.463Z,39.50
2022-10-31T06:48:32.278Z,38.60
2022-10-31T06:49:32.263Z,42.80
2022-10-31T06:50:32.265Z,39.60
2022-10-31T06:51:32.245Z,33.50
2022-10-31T06:52:32.242Z,46.70
2022-10-31T06:53:32.249Z,47.70
2022-10-31T06:54:32.242Z,50.40
2022-10-31T06:55:32.220Z,56.00
2022-10-31T06:56:32.212Z,51.10
2022-10-31T06:57:32.206Z,50.70
2022-10-31T06:58:32.197Z,55.20
2022-10-31T07:01:03.921Z,53.70
2022-10-31T07:02:03.913Z,49.20
2022-10-31T07:03:56.740Z,48.00
2022-10-31T07:04:56.727Z,51.10
2022-10-31T07:07:01.219Z,43.00
2022-10-31T07:08:01.595Z,45.50
2022-10-31T07:09:01.190Z,43.10
2022-10-31T07:10:01.251Z,44.20
2022-10-31T07:11:01.180Z,41.50
2022-10-31T07:12:01.169Z,39.70
2022-10-31T07:13:01.593Z,39.90
2022-10-31T07:14:01.153Z,36.20
2022-10-31T07:15:01.195Z,37.10
2022-10-31T07:16:01.144Z,40.80
2022-10-31T07:17:01.132Z,38.30
2022-10-31T07:18:01.126Z,35.70
2022-10-31T07:19:01.119Z,37.70
2022-10-31T07:20:01.113Z,35.50
2022-10-31T07:21:01.103Z,38.00
2022-10-31T07:22:01.097Z,35.70
2022-10-31T07:23:01.539Z,36.30
2022-10-31T07:24:01.370Z,34.60
2022-10-31T07:25:01.097Z,34.00
2022-10-31T07:26:01.073Z,32.20
2022-10-31T07:27:01.065Z,34.70
2022-10-31T07:28:01.518Z,33.00
2022-10-31T07:29:01.053Z,33.90
2022-10-31T07:30:01.038Z,39.40
2022-10-31T07:31:01.042Z,39.40
2022-10-31T07:32:01.033Z,35.80
2022-10-31T07:33:01.022Z,37.80
2022-10-31T07:34:01.013Z,40.00
2022-10-31T07:35:01.009Z,37.90
2022-10-31T07:36:01.002Z,35.50
2022-10-31T07:37:00.999Z,32.80
2022-10-31T07:38:01.305Z,38.10
2022-10-31T07:39:00.990Z,38.60
2022-10-31T07:40:00.975Z,36.40
2022-10-31T07:41:00.967Z,42.40
2022-10-31T07:42:00.955Z,36.90
2022-10-31T07:43:00.954Z,40.10
2022-10-31T07:44:00.949Z,37.90
2022-10-31T07:45:00.939Z,37.10
2022-10-31T07:46:00.959Z,39.10
2022-10-31T07:47:00.950Z,40.40
2022-10-31T07:48:01.195Z,40.70
2022-10-31T07:49:00.912Z,46.90
2022-10-31T07:50:00.923Z,40.60
2022-10-31T07:51:00.903Z,45.60
2022-10-31T07:52:00.892Z,42.10
2022-10-31T07:53:00.885Z,48.80
2022-10-31T07:54:00.878Z,43.20
2022-10-31T07:55:00.878Z,47.30
2022-10-31T07:56:00.868Z,44.70
2022-10-31T07:57:00.860Z,48.60
2022-10-31T07:58:01.199Z,43.10
2022-10-31T07:59:00.847Z,49.30
2022-10-31T08:00:00.839Z,47.70
2022-10-31T08:01:00.940Z,43.00
2022-10-31T08:02:00.824Z,45.80
2022-10-31T08:03:01.050Z,43.00
2022-10-31T08:04:00.811Z,47.30
2022-10-31T08:05:01.486Z,47.10
2022-10-31T08:06:00.800Z,43.20
2022-10-31T08:07:00.794Z,47.00
2022-10-31T08:08:01.079Z,44.00
2022-10-31T08:09:00.775Z,44.30
2022-10-31T08:10:00.773Z,47.10
2022-10-31T08:11:00.768Z,46.50
2022-10-31T08:12:00.760Z,47.10
2022-10-31T08:13:00.752Z,49.80
2022-10-31T08:14:00.745Z,47.90
2022-10-31T08:15:00.738Z,50.50
2022-10-31T08:16:00.733Z,46.70
2022-10-31T08:17:00.725Z,49.40
2022-10-31T08:18:01.079Z,51.20
2022-10-31T08:19:00.712Z,45.20
2022-10-31T08:20:00.702Z,48.30
2022-10-31T08:21:00.702Z,45.40
2022-10-31T08:22:00.692Z,48.30
2022-10-31T08:23:00.686Z,49.40
2022-10-31T08:24:00.685Z,50.10
2022-10-31T08:25:00.688Z,48.90
2022-10-31T08:26:00.668Z,46.70
2022-10-31T08:27:00.659Z,49.80
2022-10-31T08:28:01.041Z,48.50
2022-10-31T08:29:00.651Z,52.00
2022-10-31T08:30:00.646Z,44.30
2022-10-31T08:31:00.642Z,47.90
2022-10-31T08:32:00.627Z,48.00
2022-10-31T08:33:00.620Z,51.70
2022-10-31T08:34:00.616Z,50.10
2022-10-31T08:35:00.622Z,49.60
2022-10-31T08:36:00.605Z,50.10
2022-10-31T08:37:00.596Z,50.50
2022-10-31T08:38:01.042Z,51.60
2022-10-31T08:39:02.044Z,53.90
2022-10-31T08:40:00.578Z,48.80
2022-10-31T08:41:00.570Z,49.50
2022-10-31T08:42:00.576Z,54.70
2022-10-31T08:43:00.561Z,54.20
2022-10-31T08:44:00.550Z,51.70
2022-10-31T08:45:00.545Z,56.20
2022-10-31T08:46:00.710Z,59.30
2022-10-31T08:47:00.577Z,50.50
2022-10-31T08:48:00.823Z,48.90
2022-10-31T08:49:00.523Z,46.20
2022-10-31T08:50:00.513Z,49.00
2022-10-31T08:51:00.514Z,48.40
2022-10-31T08:52:00.504Z,49.50
2022-10-31T08:53:05.258Z,44.00
2022-10-31T08:54:00.490Z,44.00
2022-10-31T08:55:00.483Z,47.30
2022-10-31T08:56:00.477Z,48.50
2022-10-31T08:57:00.471Z,46.00
2022-10-31T08:58:00.843Z,49.20
2022-10-31T08:59:00.460Z,45.20
2022-10-31T09:00:00.451Z,46.40
2022-10-31T09:01:00.511Z,45.00
2022-10-31T09:02:00.527Z,46.00
2022-10-31T09:03:00.432Z,45.80
2022-10-31T09:04:00.427Z,45.20
2022-10-31T09:05:00.426Z,45.50
2022-10-31T09:06:00.462Z,45.00
2022-10-31T09:07:20.145Z,47.70
2022-10-31T09:08:00.845Z,44.10
2022-10-31T09:09:00.398Z,42.00
2022-10-31T09:10:00.389Z,44.90
2022-10-31T09:11:00.392Z,47.50
2022-10-31T09:12:00.374Z,46.60
2022-10-31T09:13:00.368Z,48.20
2022-10-31T09:14:00.363Z,44.90
2022-10-31T09:15:00.357Z,45.10
2022-10-31T09:16:00.681Z,45.50
2022-10-31T09:17:00.350Z,43.90
2022-10-31T09:18:00.772Z,43.50
2022-10-31T09:19:00.336Z,48.00
2022-10-31T09:20:00.326Z,44.80
2022-10-31T09:21:00.321Z,47.40
2022-10-31T09:22:00.314Z,44.80
2022-10-31T09:23:00.322Z,43.80
2022-10-31T09:24:00.305Z,45.30
2022-10-31T09:25:00.300Z,46.10
2022-10-31T09:26:00.295Z,43.50
2022-10-31T09:27:00.333Z,45.50
2022-10-31T09:28:00.607Z,44.90
2022-10-31T09:29:00.314Z,43.90
2022-10-31T09:30:00.273Z,43.80
2022-10-31T09:31:00.263Z,41.60
2022-10-31T09:32:00.259Z,44.20
2022-10-31T09:33:00.251Z,45.60
2022-10-31T09:34:00.242Z,42.70
2022-10-31T09:35:00.309Z,44.20
2022-10-31T09:36:00.235Z,45.10
2022-10-31T09:37:00.228Z,44.10
2022-10-31T09:38:00.735Z,43.80
2022-10-31T09:39:00.218Z,44.00
2022-10-31T09:40:00.209Z,43.40
2022-10-31T09:41:00.306Z,43.70
2022-10-31T09:42:00.198Z,45.10
2022-10-31T09:43:00.194Z,44.10
2022-10-31T09:44:00.186Z,44.80
2022-10-31T09:45:00.181Z,42.90
2022-10-31T09:46:00.178Z,44.90
2022-10-31T09:47:00.173Z,45.30
2022-10-31T09:48:00.525Z,45.90
2022-10-31T09:49:00.160Z,46.30
2022-10-31T09:50:00.247Z,43.10
2022-10-31T09:51:00.222Z,44.30
2022-10-31T09:52:00.215Z,42.70
2022-10-31T09:53:00.461Z,45.00
2022-10-31T09:54:00.146Z,46.40
2022-10-31T09:55:00.149Z,45.80
2022-10-31T09:56:00.187Z,46.90
2022-10-31T09:57:00.114Z,46.30
2022-10-31T09:58:00.119Z,43.00
2022-10-31T09:59:00.108Z,43.90
2022-10-31T10:00:00.098Z,46.40
2022-10-31T10:01:00.228Z,46.50
2022-10-31T10:02:00.191Z,45.20
2022-10-31T10:03:00.400Z,40.50
2022-10-31T10:04:00.082Z,39.90
2022-10-31T10:05:00.073Z,47.60
2022-10-31T10:06:00.072Z,45.10
2022-10-31T10:07:00.102Z,44.90
2022-10-31T10:08:00.057Z,45.70
2022-10-31T10:09:00.050Z,39.10
2022-10-31T10:10:00.046Z,41.00
2022-10-31T10:11:00.043Z,43.20
2022-10-31T10:12:00.042Z,40.60
2022-10-31T10:13:02.216Z,44.40
2022-10-31T10:14:00.025Z,42.00
2022-10-31T10:15:00.027Z,44.10
2022-10-31T10:16:00.015Z,38.90
2022-10-31T10:17:00.007Z,42.10
2022-10-31T10:18:00.005Z,47.40
2022-10-31T10:18:59.997Z,42.40
2022-10-31T10:19:59.992Z,41.10
2022-10-31T10:20:59.988Z,48.30
2022-10-31T10:21:59.982Z,41.20
2022-10-31T10:23:00.392Z,39.10
2022-10-31T10:23:59.988Z,37.10
2022-10-31T10:24:59.970Z,40.60
2022-10-31T10:25:59.964Z,36.20
2022-10-31T10:26:59.955Z,37.10
2022-10-31T10:28:00.363Z,41.90
2022-10-31T10:28:59.947Z,36.80
2022-10-31T10:29:59.943Z,40.90
2022-10-31T10:30:59.941Z,39.90
2022-10-31T10:31:59.940Z,38.50
2022-10-31T10:32:59.930Z,37.70
2022-10-31T10:34:00.073Z,38.20
2022-10-31T10:34:59.919Z,42.60
2022-10-31T10:35:59.917Z,39.70
2022-10-31T10:36:59.915Z,36.40
2022-10-31T10:38:00.536Z,37.50
2022-10-31T10:38:59.906Z,39.90
2022-10-31T10:39:59.898Z,38.40
2022-10-31T10:40:59.890Z,41.40
2022-10-31T10:41:59.883Z,36.10
2022-10-31T10:42:59.880Z,37.30
2022-10-31T10:43:59.876Z,39.30
2022-10-31T10:44:59.870Z,40.30
2022-10-31T10:45:59.866Z,38.40
2022-10-31T10:46:59.861Z,41.50
2022-10-31T10:48:00.260Z,42.10
2022-10-31T10:48:59.851Z,41.40
2022-10-31T10:49:59.848Z,39.60
2022-10-31T10:50:59.841Z,37.10
2022-10-31T10:52:19.495Z,39.40
2022-10-31T10:52:59.831Z,39.10
2022-10-31T10:53:59.832Z,38.20
2022-10-31T10:54:59.830Z,43.10
2022-10-31T10:55:59.821Z,35.70
2022-10-31T10:56:59.813Z,42.20
2022-10-31T10:58:00.266Z,41.50
2022-10-31T10:58:59.805Z,37.80
2022-10-31T10:59:59.801Z,39.00
2022-10-31T11:00:59.898Z,42.20
2022-10-31T11:01:59.793Z,39.40
2022-10-31T11:02:59.961Z,36.70
2022-10-31T11:03:59.782Z,39.00
2022-10-31T11:04:59.775Z,40.20
2022-10-31T11:05:59.771Z,39.60
2022-10-31T11:06:59.766Z,37.50
2022-10-31T11:07:59.765Z,40.30
2022-10-31T11:08:59.756Z,38.40
2022-10-31T11:09:59.754Z,38.10
2022-10-31T11:10:59.749Z,32.50
2022-10-31T11:11:59.744Z,36.70
2022-10-31T11:12:59.960Z,37.60
2022-10-31T11:13:59.736Z,39.80
2022-10-31T11:14:59.728Z,38.10
2022-10-31T11:15:59.727Z,37.50
2022-10-31T11:16:59.722Z,36.80
2022-10-31T11:17:59.717Z,38.40
2022-10-31T11:18:59.710Z,38.50
2022-10-31T11:19:59.708Z,38.00
2022-10-31T11:20:59.705Z,34.70
2022-10-31T11:21:59.699Z,38.60
2022-10-31T11:22:59.695Z,37.40
2022-10-31T11:23:59.690Z,34.70
2022-10-31T11:24:59.686Z,36.30
2022-10-31T11:25:59.678Z,36.90
2022-10-31T11:26:59.674Z,36.50
2022-10-31T11:27:59.674Z,39.70
2022-10-31T11:28:59.671Z,42.70
2022-10-31T11:30:00.817Z,35.70
2022-10-31T11:30:59.659Z,37.10
2022-10-31T11:31:59.658Z,35.30
2022-10-31T11:32:59.938Z,36.20
2022-10-31T11:33:59.648Z,34.90
2022-10-31T11:34:59.643Z,36.10
2022-10-31T11:35:59.638Z,34.80
2022-10-31T11:36:59.633Z,39.50
2022-10-31T11:37:59.981Z,36.00
2022-10-31T11:38:59.631Z,39.30
2022-10-31T11:39:59.624Z,38.60
2022-10-31T11:40:59.618Z,38.50
2022-10-31T11:41:59.617Z,37.90
2022-10-31T11:42:59.631Z,35.30
2022-10-31T11:43:59.603Z,35.70
2022-10-31T11:44:59.600Z,36.50
2022-10-31T11:45:59.597Z,40.80
2022-10-31T11:46:59.594Z,39.40
2022-10-31T11:48:00.277Z,37.10
2022-10-31T11:48:59.587Z,36.70
2022-10-31T11:49:59.581Z,37.70
2022-10-31T11:50:59.581Z,36.00
2022-10-31T11:51:59.572Z,39.20
2022-10-31T11:52:59.573Z,42.80
2022-10-31T11:54:02.715Z,43.70
2022-10-31T11:54:59.563Z,41.90
2022-10-31T11:55:59.558Z,47.40
2022-10-31T11:56:59.552Z,39.90
2022-10-31T11:57:59.890Z,41.00
2022-10-31T11:58:59.544Z,44.00
2022-10-31T11:59:59.541Z,40.40
2022-10-31T12:00:59.536Z,42.90
2022-10-31T12:01:59.694Z,39.30
2022-10-31T12:02:59.922Z,44.10
2022-10-31T12:03:59.526Z,44.80
2022-10-31T12:04:59.521Z,45.20
2022-10-31T12:05:59.516Z,45.30
2022-10-31T12:06:59.514Z,43.70
2022-10-31T12:08:03.434Z,43.10
2022-10-31T12:08:59.501Z,41.00
2022-10-31T12:09:59.499Z,44.90
2022-10-31T12:10:59.546Z,43.20
2022-10-31T12:11:59.493Z,42.70
2022-10-31T12:12:59.760Z,38.50
2022-10-31T12:14:03.625Z,38.40
2022-10-31T12:14:59.479Z,39.90
2022-10-31T12:15:59.474Z,37.80
2022-10-31T12:16:59.474Z,37.90
2022-10-31T12:18:59.466Z,38.40
2022-10-31T12:19:59.464Z,37.50
2022-10-31T12:20:59.458Z,37.20
2022-10-31T12:21:59.453Z,39.20
2022-10-31T12:22:59.809Z,35.80
2022-10-31T12:23:59.446Z,35.40
2022-10-31T12:24:59.442Z,36.00
2022-10-31T12:25:59.438Z,36.80
2022-10-31T12:26:59.436Z,38.80
2022-10-31T12:27:59.430Z,34.40
2022-10-31T12:28:59.426Z,39.90
2022-10-31T12:29:59.423Z,38.10
2022-10-31T12:30:59.420Z,41.00
2022-10-31T12:31:59.416Z,36.30
2022-10-31T12:32:59.634Z,39.40
2022-10-31T12:33:59.408Z,38.80
2022-10-31T12:34:59.426Z,38.70
2022-10-31T12:35:59.403Z,39.30
2022-10-31T12:36:59.397Z,36.70
2022-10-31T12:37:59.652Z,38.40
2022-10-31T12:38:59.390Z,38.60
2022-10-31T12:39:59.387Z,38.00
2022-10-31T12:40:59.378Z,42.90
2022-10-31T12:41:59.379Z,37.30
2022-10-31T12:42:59.745Z,37.80
2022-10-31T12:43:59.371Z,35.20
2022-10-31T12:44:59.367Z,33.90
2022-10-31T12:45:59.360Z,34.10
2022-10-31T12:46:59.361Z,40.20
2022-10-31T12:47:59.358Z,37.40
2022-10-31T12:48:59.354Z,38.60
2022-10-31T12:49:59.359Z,40.70
2022-10-31T12:50:59.348Z,39.60
2022-10-31T12:51:59.336Z,41.60
2022-10-31T12:52:59.596Z,37.90
2022-10-31T12:53:59.334Z,40.50
2022-10-31T12:54:59.331Z,36.30
2022-10-31T12:55:59.327Z,42.50
2022-10-31T12:56:59.328Z,42.90
2022-10-31T12:57:59.636Z,43.30
2022-10-31T12:58:59.317Z,40.20
2022-10-31T12:59:59.314Z,40.70
2022-10-31T13:00:59.360Z,42.70
2022-10-31T13:01:59.404Z,41.70
2022-10-31T13:02:59.299Z,44.90
2022-10-31T13:03:59.301Z,45.30